Bond, Oklahoma
Current Conditions -  °F | °C
As of 5:53 AM on Tuesday 27 Jan 2015 (Local Time) from KMKO Reporting Station
Clear Clear  
Wind Chill: 38°   Ceiling: Unl
Heat Index: 38°   Visibility: 10mi
Dew Point: 33°   Wind: 3mph
Humidity: 83%   Direction: 360°N
Pressure: 30.13"   Gusts: NA
Location:  35.4498°N, 95.4869°W
Report Text: KMKO 271153Z AUTO 36003KT 10SM CLR 03/01 A3013 RMK AO2 SLP202 T00330006 10083 20017 53017
Loading
Personal Weather Stations






























Interactive Weather Map New forecast layout! Learn more

10-Day Weather Forecast

Advertisements
Track Severe Weather on mobile